Old Harbor, Alaska
Current Conditions -  °F | °C
As of 2:15 AM on Saturday 20 Dec 2014 (Local Time) from PADQ Reporting Station
Broken Clouds Broken Clouds  
Wind Chill: 35°   Ceiling: 2100
Heat Index: 42°   Visibility: 7mi
Dew Point: 39°   Wind: 15mph
Humidity: 89%   Direction: 360°N
Pressure: 28.79"   Gusts: 29mph
Location:  57.2°N, 153.31°W
Report Text: PADQ 201115Z 36013G25KT 7SM FEW009 BKN021 BKN028 06/04 A2879 RMK AO2 T00560039
Loading
Personal Weather Stations






























Interactive Weather Map New forecast layout! Learn more

10-Day Weather Forecast

Advertisements
Track Severe Weather on mobile